createdAt,value
2023-01-30T00:02:14.561Z,-0.29
2023-01-30T00:05:14.570Z,-0.44
2023-01-30T00:08:14.497Z,-0.28
2023-01-30T00:11:19.552Z,-0.28
2023-01-30T00:14:19.529Z,-0.28
2023-01-30T00:17:19.495Z,-0.32
2023-01-30T00:20:19.819Z,-0.37
2023-01-30T00:23:19.532Z,-0.33
2023-01-30T00:26:20.548Z,-0.36
2023-01-30T00:29:20.483Z,-0.50
2023-01-30T00:32:20.532Z,-0.33
2023-01-30T00:35:23.487Z,-0.36
2023-01-30T00:38:23.513Z,-0.34
2023-01-30T00:41:24.524Z,-0.35
2023-01-30T00:44:43.536Z,-0.33
2023-01-30T00:47:43.482Z,-0.33
2023-01-30T00:50:50.549Z,-0.34
2023-01-30T00:53:50.526Z,-0.37
2023-01-30T00:56:50.552Z,-0.36
2023-01-30T00:59:51.496Z,-0.37
2023-01-30T01:02:51.515Z,-0.36
2023-01-30T01:05:51.543Z,-0.38
2023-01-30T01:08:51.532Z,-0.38
2023-01-30T01:11:51.509Z,-0.47
2023-01-30T01:14:51.516Z,-0.42
2023-01-30T01:17:51.505Z,-0.42
2023-01-30T01:20:52.515Z,-0.47
2023-01-30T01:23:53.538Z,-0.45
2023-01-30T01:26:53.486Z,-0.45
2023-01-30T01:29:46.604Z,-0.45
2023-01-30T01:32:46.528Z,-0.57
2023-01-30T01:35:46.542Z,-0.48
2023-01-30T01:38:46.484Z,-0.47
2023-01-30T01:41:46.546Z,-0.50
2023-01-30T01:45:11.545Z,-0.49
2023-01-30T01:48:16.532Z,-0.50
2023-01-30T01:51:19.512Z,-0.51
2023-01-30T01:54:24.535Z,-0.51
2023-01-30T01:57:35.515Z,-0.57
2023-01-30T02:00:35.474Z,-0.50
2023-01-30T02:03:37.503Z,-0.53
2023-01-30T02:06:37.524Z,-0.53
2023-01-30T02:09:37.523Z,-0.53
2023-01-30T02:12:38.480Z,-0.61
2023-01-30T02:15:38.530Z,-0.58
2023-01-30T02:18:38.524Z,-0.56
2023-01-30T02:22:03.498Z,-0.60
2023-01-30T02:25:29.473Z,-0.58
2023-01-30T02:29:07.506Z,-0.58
2023-01-30T02:32:45.513Z,-0.57
2023-01-30T02:36:01.513Z,-0.60
2023-01-30T02:39:14.522Z,-0.60
2023-01-30T02:42:20.508Z,-0.59
2023-01-30T02:45:25.477Z,-0.61
2023-01-30T02:48:32.484Z,-0.62
2023-01-30T02:51:35.484Z,-0.62
2023-01-30T02:54:35.520Z,-0.61
2023-01-30T02:57:37.493Z,-0.61
2023-01-30T03:00:40.530Z,-0.63
2023-01-30T03:03:53.485Z,-0.65
2023-01-30T03:07:03.498Z,-0.65
2023-01-30T03:10:21.520Z,-0.66
2023-01-30T03:13:34.481Z,-0.66
2023-01-30T03:16:49.487Z,-0.68
2023-01-30T03:19:49.531Z,-0.68
2023-01-30T03:22:49.485Z,-0.72
2023-01-30T03:25:51.477Z,-0.72
2023-01-30T03:28:51.515Z,-0.83
2023-01-30T03:31:51.514Z,-0.75
2023-01-30T03:34:51.501Z,-0.75
2023-01-30T03:37:52.463Z,-0.77
2023-01-30T03:40:52.520Z,-0.86
2023-01-30T03:43:52.502Z,-0.90
2023-01-30T03:46:52.535Z,-0.78
2023-01-30T03:49:52.460Z,-0.76
2023-01-30T03:52:53.522Z,-0.75
2023-01-30T03:55:53.482Z,-0.76
2023-01-30T03:58:53.497Z,-0.74
2023-01-30T04:01:55.475Z,-0.74
2023-01-30T04:04:56.478Z,-0.72
2023-01-30T04:07:56.481Z,-0.76
2023-01-30T04:10:56.480Z,-0.77
2023-01-30T04:13:56.476Z,-1.00
2023-01-30T04:16:57.599Z,-0.79
2023-01-30T04:19:59.529Z,-0.86
2023-01-30T04:23:00.514Z,-0.77
2023-01-30T04:26:00.514Z,-0.96
2023-01-30T04:29:01.507Z,-0.95
2023-01-30T04:32:03.469Z,-0.78
2023-01-30T04:35:03.465Z,-0.79
2023-01-30T04:38:03.495Z,-0.78
2023-01-30T04:41:07.511Z,-0.78
2023-01-30T04:44:07.532Z,-0.76
2023-01-30T04:47:08.460Z,-0.77
2023-01-30T04:50:08.513Z,-0.81
2023-01-30T04:53:08.562Z,-0.80
2023-01-30T04:56:08.459Z,-0.79
2023-01-30T04:59:08.503Z,-0.83
2023-01-30T05:02:08.715Z,-0.82
2023-01-30T05:05:08.516Z,-0.81
2023-01-30T05:08:08.476Z,-0.83
2023-01-30T05:11:08.490Z,-0.85
2023-01-30T05:14:08.498Z,-0.86
2023-01-30T05:17:08.612Z,-0.87
2023-01-30T05:20:08.489Z,-0.93
2023-01-30T05:23:08.471Z,-0.93
2023-01-30T05:26:08.513Z,-1.01
2023-01-30T05:29:10.456Z,-0.95
2023-01-30T05:32:10.505Z,-0.98
2023-01-30T05:35:10.475Z,-0.96
2023-01-30T05:38:10.475Z,-0.98
2023-01-30T05:41:21.464Z,-1.02
2023-01-30T05:44:21.461Z,-1.05
2023-01-30T05:47:21.466Z,-1.18
2023-01-30T05:50:21.526Z,-1.08
2023-01-30T05:53:25.495Z,-1.11
2023-01-30T05:56:27.507Z,-1.14
2023-01-30T05:59:29.503Z,-1.30
2023-01-30T06:02:29.520Z,-1.24
2023-01-30T06:05:29.468Z,-1.29
2023-01-30T06:08:29.477Z,-1.31
2023-01-30T06:11:30.475Z,-1.43
2023-01-30T06:14:30.483Z,-1.33
2023-01-30T06:17:30.509Z,-1.36
2023-01-30T06:20:30.495Z,-1.49
2023-01-30T06:23:30.473Z,-1.51
2023-01-30T06:26:31.744Z,-1.47
2023-01-30T06:29:34.483Z,-1.48
2023-01-30T06:32:36.479Z,-1.58
2023-01-30T06:35:37.300Z,-1.52
2023-01-30T06:38:37.483Z,-1.61
2023-01-30T06:41:37.792Z,-1.73
2023-01-30T06:44:38.613Z,-1.88
2023-01-30T06:47:38.527Z,-1.61
2023-01-30T06:50:40.572Z,-1.81
2023-01-30T06:53:40.469Z,-1.80
2023-01-30T06:56:40.463Z,-1.85
2023-01-30T06:59:51.468Z,-1.71
2023-01-30T07:02:54.646Z,-1.65
2023-01-30T07:05:55.481Z,-1.67
2023-01-30T07:08:55.489Z,-1.60
2023-01-30T07:11:56.452Z,-1.74
2023-01-30T07:14:56.467Z,-1.54
2023-01-30T07:17:56.507Z,-1.49
2023-01-30T07:21:03.548Z,-1.79
2023-01-30T07:28:32.004Z,-1.88
2023-01-30T07:32:01.662Z,-1.80
2023-01-30T07:35:16.795Z,-1.98
2023-01-30T07:38:47.150Z,-1.84
2023-01-30T07:41:47.491Z,-1.69
2023-01-30T07:44:50.498Z,-1.71
2023-01-30T07:47:52.463Z,-1.51
2023-01-30T07:50:52.456Z,-1.38
2023-01-30T07:54:07.469Z,-1.19
2023-01-30T07:57:11.440Z,-1.28
2023-01-30T08:00:12.525Z,-1.22
2023-01-30T08:03:17.560Z,-1.44
2023-01-30T08:06:19.491Z,-1.51
2023-01-30T08:09:19.559Z,-1.28
2023-01-30T08:12:21.505Z,-1.27
2023-01-30T08:18:49.527Z,-1.19
2023-01-30T08:21:54.930Z,-1.31
2023-01-30T08:24:59.671Z,-1.01
2023-01-30T08:28:03.456Z,-0.83
2023-01-30T08:31:03.595Z,-0.76
2023-01-30T08:34:04.629Z,-0.77
2023-01-30T08:37:05.483Z,-0.56
2023-01-30T08:40:08.513Z,-0.59
2023-01-30T08:43:08.473Z,-0.85
2023-01-30T08:46:10.519Z,-0.41
2023-01-30T08:49:14.147Z,-0.05
2023-01-30T08:52:20.298Z,0.08
2023-01-30T08:55:31.158Z,-0.16
2023-01-30T08:58:32.588Z,0.31
2023-01-30T09:01:35.371Z,0.11
2023-01-30T09:04:35.570Z,0.56
2023-01-30T09:07:35.492Z,0.90
2023-01-30T09:10:35.610Z,1.93
2023-01-30T09:13:35.963Z,3.09
2023-01-30T09:16:36.468Z,3.15
2023-01-30T09:19:42.496Z,4.81
2023-01-30T09:22:42.469Z,3.80
2023-01-30T09:25:44.485Z,2.63
2023-01-30T09:28:47.491Z,1.53
2023-01-30T09:31:47.481Z,1.07
2023-01-30T09:34:47.458Z,0.42
2023-01-30T09:37:48.712Z,-0.04
2023-01-30T09:41:07.470Z,-0.09
2023-01-30T09:44:28.499Z,-0.28
2023-01-30T09:47:53.605Z,-0.38
2023-01-30T09:51:17.604Z,-0.38
2023-01-30T09:54:26.696Z,-0.18
2023-01-30T09:57:37.515Z,0.08
2023-01-30T10:00:53.363Z,-0.06
2023-01-30T10:04:15.594Z,0.02
2023-01-30T10:07:59.640Z,-0.28
2023-01-30T10:11:10.094Z,-0.50
2023-01-30T10:14:29.528Z,-0.57
2023-01-30T10:17:47.470Z,-0.69
2023-01-30T10:20:49.436Z,-0.70
2023-01-30T10:24:15.543Z,-0.65
2023-01-30T10:27:15.446Z,-0.77
2023-01-30T10:30:18.725Z,-0.81
2023-01-30T10:33:29.474Z,-0.87
2023-01-30T10:36:40.496Z,-0.94
2023-01-30T10:40:05.008Z,-0.75
2023-01-30T10:43:11.441Z,-0.66
2023-01-30T10:46:25.841Z,-0.54
2023-01-30T10:49:32.472Z,-0.49
2023-01-30T10:52:56.441Z,-0.09
2023-01-30T10:56:02.593Z,1.86
2023-01-30T10:59:18.740Z,0.97
2023-01-30T11:02:40.777Z,0.21
2023-01-30T11:05:46.490Z,0.20
2023-01-30T11:08:52.480Z,0.39
2023-01-30T11:12:21.520Z,0.62
2023-01-30T11:15:21.478Z,1.16
2023-01-30T11:19:06.662Z,0.67
2023-01-30T11:21:44.730Z,0.55
2023-01-30T11:25:10.481Z,0.30
2023-01-30T11:28:19.604Z,0.28
2023-01-30T11:31:28.272Z,0.20
2023-01-30T11:34:38.509Z,-0.03
2023-01-30T11:37:46.449Z,0.07
2023-01-30T11:40:51.537Z,-0.12
2023-01-30T11:43:53.492Z,-0.28
2023-01-30T11:46:59.071Z,0.20
2023-01-30T11:50:15.480Z,0.07
2023-01-30T11:53:29.482Z,0.20
2023-01-30T11:56:35.443Z,0.42
2023-01-30T11:59:50.456Z,0.40
2023-01-30T12:02:55.017Z,0.48
2023-01-30T12:05:55.430Z,0.83
2023-01-30T12:08:55.500Z,0.88
2023-01-30T12:11:56.431Z,0.26
2023-01-30T12:15:28.997Z,0.30
2023-01-30T12:18:51.528Z,0.11
2023-01-30T12:22:03.956Z,0.25
2023-01-30T12:25:14.465Z,0.26
2023-01-30T12:28:24.588Z,0.37
2023-01-30T12:31:36.519Z,-0.04
2023-01-30T12:34:37.559Z,0.28
2023-01-30T12:38:08.443Z,0.51
2023-01-30T12:41:30.455Z,0.61
2023-01-30T12:45:03.417Z,0.58
2023-01-30T12:48:23.486Z,0.38
2023-01-30T12:51:33.460Z,0.46
2023-01-30T12:55:12.503Z,0.46
2023-01-30T12:58:43.454Z,0.45
2023-01-30T13:01:55.466Z,0.49
2023-01-30T13:05:12.602Z,0.44
2023-01-30T13:08:43.477Z,0.39
2023-01-30T13:12:30.693Z,0.41
2023-01-30T13:16:14.734Z,0.27
2023-01-30T13:19:28.145Z,0.30
2023-01-30T13:22:37.486Z,0.36
2023-01-30T13:26:00.462Z,0.45
2023-01-30T13:29:11.520Z,0.50
2023-01-30T13:32:13.610Z,0.57
2023-01-30T13:35:14.479Z,0.60
2023-01-30T13:38:17.545Z,0.46
2023-01-30T13:41:17.484Z,0.61
2023-01-30T13:44:56.459Z,0.62
2023-01-30T13:48:24.474Z,0.28
2023-01-30T13:51:50.436Z,0.55
2023-01-30T13:54:51.465Z,0.59
2023-01-30T13:58:26.440Z,0.39
2023-01-30T14:01:28.477Z,0.62
2023-01-30T14:04:50.426Z,0.67
2023-01-30T14:07:55.423Z,0.70
2023-01-30T14:10:55.509Z,0.71
2023-01-30T14:14:05.503Z,0.80
2023-01-30T14:17:07.460Z,0.71
2023-01-30T14:20:10.419Z,0.78
2023-01-30T14:23:11.482Z,0.74
2023-01-30T14:26:11.494Z,0.76
2023-01-30T14:29:11.403Z,0.75
2023-01-30T14:32:11.592Z,0.75
2023-01-30T14:35:16.802Z,0.62
2023-01-30T14:38:23.514Z,0.76
2023-01-30T14:42:23.465Z,0.78
2023-01-30T14:46:03.438Z,-0.10
2023-01-30T14:49:11.444Z,0.82
2023-01-30T14:52:12.460Z,0.83
2023-01-30T14:55:12.440Z,0.83
2023-01-30T14:58:15.425Z,0.81
2023-01-30T15:01:15.513Z,0.62
2023-01-30T15:04:16.429Z,0.73
2023-01-30T15:07:21.484Z,0.87
2023-01-30T15:10:43.504Z,0.70
2023-01-30T15:13:50.480Z,0.86
2023-01-30T15:17:00.548Z,0.78
2023-01-30T15:20:16.792Z,0.86
2023-01-30T15:23:22.450Z,0.86
2023-01-30T15:26:28.520Z,0.83
2023-01-30T15:30:05.496Z,0.83
2023-01-30T15:33:31.353Z,0.81
2023-01-30T15:36:45.472Z,0.81
2023-01-30T15:39:45.403Z,0.83
2023-01-30T15:42:45.420Z,0.74
2023-01-30T15:45:59.493Z,0.73
2023-01-30T15:49:17.437Z,0.84
2023-01-30T15:52:18.409Z,0.83
2023-01-30T15:55:18.478Z,0.77
2023-01-30T15:58:20.415Z,0.86
2023-01-30T16:01:22.561Z,0.85
2023-01-30T16:04:39.441Z,0.75
2023-01-30T16:07:41.459Z,0.75
2023-01-30T16:10:44.422Z,0.61
2023-01-30T16:13:46.421Z,0.53
2023-01-30T16:16:48.462Z,0.64
2023-01-30T16:19:50.403Z,0.48
2023-01-30T16:22:50.411Z,0.62
2023-01-30T16:25:50.389Z,0.60
2023-01-30T16:28:50.412Z,0.58
2023-01-30T16:31:53.528Z,0.49
2023-01-30T16:34:53.410Z,0.61
2023-01-30T16:37:53.389Z,0.59
2023-01-30T16:40:53.453Z,0.60
2023-01-30T16:43:41.408Z,0.59
2023-01-30T16:46:59.396Z,0.58
2023-01-30T16:50:03.444Z,0.37
2023-01-30T16:53:07.417Z,0.42
2023-01-30T16:56:16.408Z,0.58
2023-01-30T16:59:16.429Z,0.59
2023-01-30T17:02:18.406Z,0.53
2023-01-30T17:05:28.415Z,0.61
2023-01-30T17:08:51.529Z,0.64
2023-01-30T17:11:53.524Z,0.59
2023-01-30T17:14:53.401Z,0.61
2023-01-30T17:17:54.403Z,0.61
2023-01-30T17:20:57.453Z,0.58
2023-01-30T17:24:01.453Z,0.59
2023-01-30T17:27:08.450Z,0.52
2023-01-30T17:30:08.454Z,0.58
2023-01-30T17:33:08.441Z,0.60
2023-01-30T17:36:08.440Z,0.59
2023-01-30T17:39:08.436Z,0.58
2023-01-30T17:42:08.398Z,0.56
2023-01-30T17:45:09.416Z,0.55
2023-01-30T17:48:09.432Z,0.54
2023-01-30T17:51:09.396Z,0.55
2023-01-30T17:54:09.395Z,0.53
2023-01-30T17:57:13.422Z,0.40
2023-01-30T18:00:13.387Z,0.46
2023-01-30T18:03:13.384Z,0.46
2023-01-30T18:06:16.388Z,0.45
2023-01-30T18:09:16.431Z,0.30
2023-01-30T18:12:16.430Z,0.47
2023-01-30T18:15:16.592Z,0.45
2023-01-30T18:18:09.415Z,0.48
2023-01-30T18:20:55.417Z,0.50
2023-01-30T18:23:55.455Z,0.51
2023-01-30T18:26:55.448Z,0.51
2023-01-30T18:29:55.429Z,0.36
2023-01-30T18:32:55.398Z,0.49
2023-01-30T18:35:55.416Z,0.57
2023-01-30T18:38:55.437Z,0.51
2023-01-30T18:41:55.383Z,0.59
2023-01-30T18:44:55.444Z,0.53
2023-01-30T18:47:55.435Z,0.61
2023-01-30T18:50:55.408Z,0.56
2023-01-30T18:53:56.397Z,0.52
2023-01-30T18:56:56.403Z,0.60
2023-01-30T18:59:56.448Z,0.62
2023-01-30T19:02:56.471Z,0.62
2023-01-30T19:05:56.443Z,0.66
2023-01-30T19:08:56.408Z,0.61
2023-01-30T19:12:14.417Z,0.68
2023-01-30T19:15:14.404Z,0.66
2023-01-30T19:18:14.429Z,0.65
2023-01-30T19:21:14.399Z,0.66
2023-01-30T19:24:18.433Z,0.62
2023-01-30T19:27:20.384Z,0.47
2023-01-30T19:30:21.833Z,0.52
2023-01-30T19:33:21.391Z,0.64
2023-01-30T19:36:31.722Z,0.59
2023-01-30T19:39:31.370Z,0.55
2023-01-30T19:42:31.429Z,0.53
2023-01-30T19:45:31.391Z,0.60
2023-01-30T19:48:31.394Z,0.59
2023-01-30T19:51:38.423Z,0.61
2023-01-30T19:54:38.411Z,0.43
2023-01-30T19:57:38.409Z,0.59
2023-01-30T20:00:38.373Z,0.43
2023-01-30T20:03:38.423Z,0.57
2023-01-30T20:06:41.423Z,0.51
2023-01-30T20:09:41.429Z,0.51
2023-01-30T20:12:42.422Z,0.64
2023-01-30T20:15:42.385Z,0.64
2023-01-30T20:18:45.415Z,0.54
2023-01-30T20:21:45.456Z,0.64
2023-01-30T20:24:45.429Z,0.65
2023-01-30T20:27:46.435Z,0.66
2023-01-30T20:30:46.483Z,0.66
2023-01-30T20:33:46.433Z,0.69
2023-01-30T20:36:46.407Z,0.70
2023-01-30T20:39:46.415Z,0.61
2023-01-30T20:42:46.410Z,0.68
2023-01-30T20:45:46.412Z,0.69
2023-01-30T20:48:47.399Z,0.69
2023-01-30T20:51:48.379Z,0.70
2023-01-30T20:54:48.446Z,0.69
2023-01-30T20:57:48.376Z,0.70
2023-01-30T21:00:48.492Z,0.69
2023-01-30T21:03:48.471Z,0.67
2023-01-30T21:06:50.430Z,0.53
2023-01-30T21:09:50.416Z,0.64
2023-01-30T21:12:50.386Z,0.67
2023-01-30T21:15:50.433Z,0.66
2023-01-30T21:18:51.377Z,0.65
2023-01-30T21:22:01.894Z,0.63
2023-01-30T21:25:01.383Z,0.60
2023-01-30T21:28:01.424Z,0.56
2023-01-30T21:31:01.425Z,0.47
2023-01-30T21:33:54.488Z,0.55
2023-01-30T21:37:12.423Z,0.54
2023-01-30T21:40:30.391Z,0.35
2023-01-30T21:43:30.412Z,0.20
2023-01-30T21:46:30.394Z,0.48
2023-01-30T21:49:34.417Z,0.44
2023-01-30T21:52:34.428Z,0.30
2023-01-30T21:55:34.423Z,0.39
2023-01-30T21:58:34.368Z,0.37
2023-01-30T22:01:34.433Z,0.36
2023-01-30T22:04:34.398Z,0.34
2023-01-30T22:07:34.419Z,0.27
2023-01-30T22:10:34.377Z,0.33
2023-01-30T22:13:34.471Z,0.33
2023-01-30T22:16:36.389Z,0.34
2023-01-30T22:19:41.389Z,0.32
2023-01-30T22:22:44.407Z,0.33
2023-01-30T22:25:44.390Z,0.30
2023-01-30T22:28:45.407Z,0.27
2023-01-30T22:31:47.423Z,0.20
2023-01-30T22:34:47.357Z,0.09
2023-01-30T22:37:47.407Z,-0.13
2023-01-30T22:40:47.412Z,-0.01
2023-01-30T22:43:48.361Z,0.02
2023-01-30T22:46:50.464Z,0.03
2023-01-30T22:49:50.402Z,-0.02
2023-01-30T22:52:50.380Z,-0.08
2023-01-30T22:55:50.364Z,-0.18
2023-01-30T22:58:50.408Z,-0.03
2023-01-30T23:02:01.483Z,-0.02
2023-01-30T23:05:01.411Z,-0.02
2023-01-30T23:08:01.380Z,-0.03
2023-01-30T23:11:01.400Z,-0.04
2023-01-30T23:14:03.371Z,-0.07
2023-01-30T23:17:03.419Z,-0.14
2023-01-30T23:20:03.403Z,-0.24
2023-01-30T23:23:06.370Z,-0.32
2023-01-30T23:26:06.375Z,-0.38
2023-01-30T23:29:06.361Z,-0.39
2023-01-30T23:32:06.443Z,-0.43
2023-01-30T23:35:06.399Z,-0.43
2023-01-30T23:38:27.400Z,-0.42
2023-01-30T23:41:29.369Z,-0.42
2023-01-30T23:44:29.420Z,-0.46
2023-01-30T23:47:29.391Z,-0.48
2023-01-30T23:50:29.410Z,-0.49
2023-01-30T23:53:29.380Z,-0.49
2023-01-30T23:56:29.387Z,-0.51
2023-01-30T23:59:29.376Z,-0.62
